Time;durP1;ratioP1;P1;durP2;ratioP2;P2;SDS_P1;SDS_P2;PMS_P1;PMS_P2;Temp;Humidity;BMP_temperature;BMP_pressure;BME280_temperature;BME280_humidity;BME280_pressure;Samples;Min_cycle;Max_cycle;Signal;HPM_P1;HPM_P2
2024/03/28 00:02:10;;;;;;;;;;;10.10;82.60;;;;;;5033377;28;19920;-70
2024/03/28 00:04:36;;;;;;;;;;;10.10;82.80;;;;;;5051880;28;20411;-70
2024/03/28 00:07:02;;;;;;;;;;;10.10;83.60;;;;;;5050074;28;19921;-70
2024/03/28 00:09:28;;;;;;;;;;;10.00;82.90;;;;;;5051324;28;20286;-76
2024/03/28 00:11:54;;;;;;;;;;;9.90;82.80;;;;;;5050873;28;19927;-70
2024/03/28 00:17:21;;;;;;;;;;;9.80;82.60;;;;;;5051876;28;19921;-76
2024/03/28 00:19:47;;;;;;;;;;;9.80;82.50;;;;;;5051249;28;19919;-75
2024/03/28 00:22:13;;;;;;;;;;;9.80;82.50;;;;;;5049645;28;19927;-70
2024/03/28 00:24:42;;;;;;;;;;;9.70;82.60;;;;;;5049936;28;19920;-70
2024/03/28 00:27:08;;;;;;;;;;;9.70;82.40;;;;;;5049814;28;19920;-70
2024/03/28 00:29:34;;;;;;;;;;;9.70;82.50;;;;;;5051651;28;19913;-70
2024/03/28 00:32:00;;;;;;;;;;;9.70;82.40;;;;;;5050297;28;19986;-70
2024/03/28 00:34:26;;;;;;;;;;;9.60;82.10;;;;;;5050391;28;19923;-71
2024/03/28 00:36:52;;;;;;;;;;;9.60;81.90;;;;;;5050032;28;19970;-75
2024/03/28 00:39:18;;;;;;;;;;;9.60;81.50;;;;;;5053254;28;19999;-76
2024/03/28 00:41:44;;;;;;;;;;;9.60;81.70;;;;;;5053109;28;20219;-69
2024/03/28 00:44:09;;;;;;;;;;;9.50;81.00;;;;;;5054940;28;19913;-72
2024/03/28 00:46:35;;;;;;;;;;;9.50;79.80;;;;;;5054259;28;20376;-75
2024/03/28 00:49:01;;;;;;;;;;;9.50;78.80;;;;;;5055614;28;20007;-71
2024/03/28 00:51:27;;;;;;;;;;;9.50;77.90;;;;;;5054967;28;19917;-75
2024/03/28 00:53:53;;;;;;;;;;;9.50;76.40;;;;;;5055579;28;20102;-76
2024/03/28 00:56:19;;;;;;;;;;;9.50;75.90;;;;;;5055034;28;19920;-75
2024/03/28 00:58:45;;;;;;;;;;;9.50;74.30;;;;;;5053259;28;19931;-74
2024/03/28 01:01:10;;;;;;;;;;;9.50;74.60;;;;;;5054425;28;20443;-69
2024/03/28 01:03:36;;;;;;;;;;;9.50;73.90;;;;;;5054830;28;19920;-70
2024/03/28 01:06:03;;;;;;;;;;;9.50;74.50;;;;;;5053278;28;19916;-73
2024/03/28 01:08:29;;;;;;;;;;;9.40;74.10;;;;;;5054850;28;19921;-70
2024/03/28 01:10:55;;;;;;;;;;;9.40;74.90;;;;;;5052640;28;19924;-75
2024/03/28 01:13:20;;;;;;;;;;;9.40;73.30;;;;;;5053329;28;20297;-76
2024/03/28 01:15:46;;;;;;;;;;;9.40;72.30;;;;;;5053518;28;19925;-75
2024/03/28 01:18:12;;;;;;;;;;;9.50;73.00;;;;;;5037081;28;20015;-76
2024/03/28 01:20:38;;;;;;;;;;;9.40;73.60;;;;;;5053102;28;19928;-76
2024/03/28 01:23:04;;;;;;;;;;;9.40;74.30;;;;;;5055467;28;19931;-69
2024/03/28 01:25:30;;;;;;;;;;;9.40;74.80;;;;;;5054709;28;19913;-73
2024/03/28 01:27:56;;;;;;;;;;;9.30;75.00;;;;;;5055004;28;19974;-76
2024/03/28 01:30:22;;;;;;;;;;;9.20;75.00;;;;;;5052986;28;19924;-70
2024/03/28 01:32:49;;;;;;;;;;;9.30;75.50;;;;;;5055158;28;19931;-76
2024/03/28 01:35:15;;;;;;;;;;;9.10;74.90;;;;;;5054737;28;19916;-71
2024/03/28 01:37:41;;;;;;;;;;;9.10;75.30;;;;;;5054910;28;19925;-70
2024/03/28 01:40:07;;;;;;;;;;;9.10;74.90;;;;;;5052504;28;19965;-76
2024/03/28 01:42:34;;;;;;;;;;;9.00;74.70;;;;;;5036813;28;19921;-76
2024/03/28 01:45:00;;;;;;;;;;;9.00;73.20;;;;;;5054529;28;19912;-76
2024/03/28 01:47:26;;;;;;;;;;;9.00;72.70;;;;;;5054130;28;19928;-75
2024/03/28 01:49:52;;;;;;;;;;;9.10;72.20;;;;;;5035251;28;19912;-70
2024/03/28 01:52:18;;;;;;;;;;;9.10;71.90;;;;;;5053453;28;20019;-76
2024/03/28 01:54:45;;;;;;;;;;;9.10;71.60;;;;;;5052332;28;20380;-76
2024/03/28 01:57:12;;;;;;;;;;;9.10;71.10;;;;;;5035641;28;19925;-70
2024/03/28 01:59:38;;;;;;;;;;;9.10;71.20;;;;;;5052303;28;19913;-69
2024/03/28 02:02:06;;;;;;;;;;;9.10;70.80;;;;;;5051722;28;19924;-70
2024/03/28 02:04:34;;;;;;;;;;;9.10;71.40;;;;;;5052197;28;19920;-76
2024/03/28 02:07:00;;;;;;;;;;;9.10;70.50;;;;;;5052182;28;19928;-76
2024/03/28 02:09:26;;;;;;;;;;;9.00;71.20;;;;;;5052335;28;20007;-70
2024/03/28 02:12:10;;;;;;;;;;;9.00;71.10;;;;;;5052282;28;19970;-76
2024/03/28 02:14:36;;;;;;;;;;;9.00;71.30;;;;;;5053454;28;20377;-69
2024/03/28 02:17:22;;;;;;;;;;;8.90;71.00;;;;;;5051929;28;19978;-70
2024/03/28 02:19:48;;;;;;;;;;;8.90;71.90;;;;;;5053419;28;19916;-76
2024/03/28 02:22:14;;;;;;;;;;;8.90;72.60;;;;;;5051305;28;20258;-71
2024/03/28 02:24:41;;;;;;;;;;;8.90;72.40;;;;;;5053070;28;20348;-69
2024/03/28 02:27:06;;;;;;;;;;;8.80;72.00;;;;;;5053040;28;19962;-69
2024/03/28 02:29:32;;;;;;;;;;;8.80;72.10;;;;;;5051697;28;19921;-76
2024/03/28 02:31:58;;;;;;;;;;;8.80;72.10;;;;;;5053048;28;19916;-70
2024/03/28 02:34:24;;;;;;;;;;;8.80;71.60;;;;;;5052546;28;19923;-76
2024/03/28 02:36:50;;;;;;;;;;;8.70;71.30;;;;;;5052197;28;19920;-69
2024/03/28 02:39:16;;;;;;;;;;;8.70;71.40;;;;;;5035032;28;20404;-76
2024/03/28 02:41:42;;;;;;;;;;;8.70;70.00;;;;;;5052347;28;20003;-69
2024/03/28 02:44:08;;;;;;;;;;;8.70;70.50;;;;;;5034681;28;20381;-76
2024/03/28 02:46:34;;;;;;;;;;;8.80;70.50;;;;;;5051899;28;19917;-70
2024/03/28 02:48:59;;;;;;;;;;;8.60;70.20;;;;;;5053194;28;19943;-69
2024/03/28 02:51:25;;;;;;;;;;;8.60;69.50;;;;;;5051466;28;19916;-75
2024/03/28 02:53:51;;;;;;;;;;;8.60;69.10;;;;;;5053233;28;19926;-76
2024/03/28 02:56:17;;;;;;;;;;;8.50;67.00;;;;;;5053088;28;20439;-72
2024/03/28 02:58:43;;;;;;;;;;;8.70;66.90;;;;;;5051525;28;19917;-70
2024/03/28 03:01:09;;;;;;;;;;;8.70;65.50;;;;;;5051628;28;20317;-70
2024/03/28 03:03:35;;;;;;;;;;;8.80;64.90;;;;;;5053523;28;19927;-75
2024/03/28 03:06:01;;;;;;;;;;;8.80;65.20;;;;;;5051550;28;20166;-69
2024/03/28 03:08:28;;;;;;;;;;;8.80;64.50;;;;;;5052814;28;19920;-70
2024/03/28 03:10:54;;;;;;;;;;;8.90;63.70;;;;;;5051235;28;20003;-76
2024/03/28 03:13:20;;;;;;;;;;;8.90;61.60;;;;;;5051783;28;19921;-75
2024/03/28 03:16:04;;;;;;;;;;;9.00;63.10;;;;;;5052754;28;20133;-75
2024/03/28 03:18:32;;;;;;;;;;;9.00;62.40;;;;;;5053039;28;20603;-70
2024/03/28 03:21:00;;;;;;;;;;;8.90;63.50;;;;;;5052153;28;20410;-70
2024/03/28 03:23:27;;;;;;;;;;;9.00;62.50;;;;;;5051653;28;20305;-70
2024/03/28 03:26:11;;;;;;;;;;;8.90;62.50;;;;;;5034723;28;19913;-70
2024/03/28 03:34:40;;;;;;;;;;;8.90;63.00;;;;;;5052577;28;19923;-75
2024/03/28 03:37:25;;;;;;;;;;;8.80;63.00;;;;;;5052540;28;19917;-76
2024/03/28 03:40:10;;;;;;;;;;;8.80;63.10;;;;;;5051699;28;20282;-70
2024/03/28 03:42:36;;;;;;;;;;;8.80;63.40;;;;;;5051652;28;19956;-76
2024/03/28 03:45:02;;;;;;;;;;;8.80;63.00;;;;;;5050327;28;20377;-69
2024/03/28 03:47:28;;;;;;;;;;;8.80;63.40;;;;;;5050425;28;19925;-69
2024/03/28 03:49:54;;;;;;;;;;;8.80;62.00;;;;;;5051539;28;19917;-69
2024/03/28 03:52:20;;;;;;;;;;;8.80;60.80;;;;;;5051326;28;19967;-76
2024/03/28 03:54:46;;;;;;;;;;;8.80;62.00;;;;;;5051297;28;19925;-70
2024/03/28 03:57:12;;;;;;;;;;;8.90;61.30;;;;;;5049906;28;19962;-69
2024/03/28 03:59:39;;;;;;;;;;;8.80;61.20;;;;;;5050332;28;19923;-70
2024/03/28 04:02:06;;;;;;;;;;;8.90;61.10;;;;;;5050003;28;20297;-76
2024/03/28 04:04:32;;;;;;;;;;;8.90;60.40;;;;;;5034103;28;19916;-70
2024/03/28 04:06:58;;;;;;;;;;;9.00;59.90;;;;;;5049975;28;19917;-69
2024/03/28 04:09:24;;;;;;;;;;;9.00;60.50;;;;;;5050189;28;19917;-69
2024/03/28 04:11:50;;;;;;;;;;;9.00;61.00;;;;;;5050601;28;20394;-76
2024/03/28 04:14:17;;;;;;;;;;;8.90;60.60;;;;;;5054184;28;19967;-76
2024/03/28 04:16:43;;;;;;;;;;;8.90;60.00;;;;;;5054025;28;19917;-76
2024/03/28 04:19:10;;;;;;;;;;;8.90;60.00;;;;;;5054958;28;19925;-76
2024/03/28 04:21:36;;;;;;;;;;;8.90;59.40;;;;;;5054164;28;19943;-70
2024/03/28 04:24:20;;;;;;;;;;;8.90;59.30;;;;;;5054670;28;19970;-70
2024/03/28 04:26:46;;;;;;;;;;;8.90;59.60;;;;;;5055472;28;19990;-75
2024/03/28 04:29:12;;;;;;;;;;;8.90;59.80;;;;;;5054025;28;20019;-69
2024/03/28 04:31:38;;;;;;;;;;;8.90;60.70;;;;;;5054778;28;20082;-76
2024/03/28 04:34:04;;;;;;;;;;;8.90;61.30;;;;;;5055235;28;20003;-70
2024/03/28 04:36:30;;;;;;;;;;;8.80;61.60;;;;;;5053922;28;19913;-76
2024/03/28 04:38:55;;;;;;;;;;;8.80;62.00;;;;;;5055393;28;20054;-70
2024/03/28 04:41:21;;;;;;;;;;;8.80;62.50;;;;;;5053422;28;19931;-76
2024/03/28 04:43:47;;;;;;;;;;;8.80;62.50;;;;;;5053897;28;20023;-70
2024/03/28 04:46:13;;;;;;;;;;;8.70;62.50;;;;;;5053833;28;20003;-76
2024/03/28 04:48:39;;;;;;;;;;;8.70;62.10;;;;;;5055386;28;20011;-76
2024/03/28 04:51:05;;;;;;;;;;;8.70;62.20;;;;;;5054434;28;19967;-76
2024/03/28 04:53:31;;;;;;;;;;;8.70;62.50;;;;;;5053648;28;20012;-70
2024/03/28 04:55:56;;;;;;;;;;;8.70;62.30;;;;;;5053517;28;19925;-70
2024/03/28 04:58:23;;;;;;;;;;;8.80;61.70;;;;;;5054921;28;20008;-71
2024/03/28 05:00:49;;;;;;;;;;;8.90;60.90;;;;;;5052732;28;19920;-77
2024/03/28 05:03:15;;;;;;;;;;;8.90;61.30;;;;;;5053568;28;20118;-69
2024/03/28 05:05:41;;;;;;;;;;;9.00;61.40;;;;;;5036601;28;20351;-76
2024/03/28 05:08:07;;;;;;;;;;;9.10;61.10;;;;;;5053291;28;20027;-76
2024/03/28 05:10:37;;;;;;;;;;;9.10;61.60;;;;;;5053916;28;19923;-70
2024/03/28 05:13:04;;;;;;;;;;;9.20;60.70;;;;;;5053273;28;19921;-76
2024/03/28 05:15:31;;;;;;;;;;;9.20;61.20;;;;;;5054392;28;20171;-70
2024/03/28 05:17:58;;;;;;;;;;;9.30;60.20;;;;;;5036970;28;19921;-76
2024/03/28 05:20:24;;;;;;;;;;;9.40;59.70;;;;;;5052631;28;20004;-75
2024/03/28 05:22:50;;;;;;;;;;;9.50;60.00;;;;;;5052930;28;19962;-70
2024/03/28 05:25:16;;;;;;;;;;;9.60;57.60;;;;;;5053162;28;19939;-75
2024/03/28 05:27:41;;;;;;;;;;;9.70;57.80;;;;;;5054541;28;20008;-76
2024/03/28 05:30:08;;;;;;;;;;;9.70;57.40;;;;;;5052457;28;20016;-70
2024/03/28 05:32:34;;;;;;;;;;;9.80;57.40;;;;;;5054690;28;19920;-76
2024/03/28 05:35:00;;;;;;;;;;;9.90;58.00;;;;;;5054094;28;19920;-71
2024/03/28 05:37:27;;;;;;;;;;;10.00;57.00;;;;;;5052992;28;19924;-76
2024/03/28 05:39:52;;;;;;;;;;;10.10;57.30;;;;;;5052533;28;20019;-77
2024/03/28 05:42:18;;;;;;;;;;;10.20;57.40;;;;;;5053475;28;20296;-76
2024/03/28 05:44:44;;;;;;;;;;;10.20;57.70;;;;;;5052384;28;20289;-70
2024/03/28 05:47:10;;;;;;;;;;;10.20;58.00;;;;;;5053920;28;19966;-69
2024/03/28 05:49:36;;;;;;;;;;;10.20;58.00;;;;;;5035941;28;20350;-75
2024/03/28 05:52:02;;;;;;;;;;;10.30;57.80;;;;;;5051912;28;20003;-70
2024/03/28 05:54:28;;;;;;;;;;;10.40;57.90;;;;;;5052233;28;20018;-70
2024/03/28 05:56:54;;;;;;;;;;;10.40;58.20;;;;;;5052403;28;19967;-70
2024/03/28 05:59:22;;;;;;;;;;;10.40;58.00;;;;;;5053754;28;19916;-70
2024/03/28 06:01:48;;;;;;;;;;;10.40;57.80;;;;;;5051742;28;19920;-76
2024/03/28 06:04:14;;;;;;;;;;;10.40;58.30;;;;;;5052371;28;19999;-70
2024/03/28 06:06:40;;;;;;;;;;;10.40;58.20;;;;;;5035801;28;20015;-76
2024/03/28 06:09:06;;;;;;;;;;;10.40;57.70;;;;;;5052279;28;19919;-76
2024/03/28 06:11:32;;;;;;;;;;;10.40;57.20;;;;;;5053118;28;19917;-70
2024/03/28 06:14:08;;;;;;;;;;;10.40;56.90;;;;;;5053236;28;20432;-76
2024/03/28 06:16:34;;;;;;;;;;;10.50;57.60;;;;;;5035591;28;19920;-69
2024/03/28 06:19:01;;;;;;;;;;;10.60;58.40;;;;;;5051996;28;20354;-70
2024/03/28 06:21:27;;;;;;;;;;;10.60;57.80;;;;;;5051612;28;19924;-70
2024/03/28 06:23:53;;;;;;;;;;;10.80;57.60;;;;;;5052055;28;19917;-77
2024/03/28 06:26:19;;;;;;;;;;;10.80;57.70;;;;;;5052966;28;19987;-70
2024/03/28 06:28:45;;;;;;;;;;;10.80;57.00;;;;;;5051704;28;19927;-76
2024/03/28 06:31:11;;;;;;;;;;;10.90;56.90;;;;;;5051281;28;20366;-70
2024/03/28 06:33:37;;;;;;;;;;;11.00;56.30;;;;;;5053352;28;20012;-76
2024/03/28 06:36:06;;;;;;;;;;;11.10;57.30;;;;;;5052701;28;19959;-70
2024/03/28 06:38:32;;;;;;;;;;;11.20;55.00;;;;;;5053236;28;19963;-70
2024/03/28 06:40:58;;;;;;;;;;;11.30;55.90;;;;;;5050913;28;20378;-76
2024/03/28 06:43:24;;;;;;;;;;;11.40;55.90;;;;;;5051753;28;19974;-70
2024/03/28 06:45:50;;;;;;;;;;;11.60;56.30;;;;;;5051284;28;19912;-72
2024/03/28 06:48:16;;;;;;;;;;;11.70;55.20;;;;;;5051497;28;20352;-76
2024/03/28 06:50:42;;;;;;;;;;;11.70;55.40;;;;;;5050930;28;20027;-76
2024/03/28 06:53:08;;;;;;;;;;;11.90;55.60;;;;;;5052987;28;19920;-70
2024/03/28 06:55:35;;;;;;;;;;;12.10;56.20;;;;;;5051113;28;20381;-70
2024/03/28 06:58:01;;;;;;;;;;;12.20;55.60;;;;;;5052514;28;19970;-76
2024/03/28 07:00:27;;;;;;;;;;;12.30;54.90;;;;;;5051888;28;19970;-76
2024/03/28 07:02:53;;;;;;;;;;;12.40;53.60;;;;;;5052604;28;20027;-70
2024/03/28 07:05:18;;;;;;;;;;;12.60;51.80;;;;;;5052253;28;20011;-76
2024/03/28 07:07:44;;;;;;;;;;;12.80;53.00;;;;;;5052484;28;19920;-69
2024/03/28 07:10:10;;;;;;;;;;;13.10;51.50;;;;;;5051634;28;20015;-70
2024/03/28 07:12:37;;;;;;;;;;;13.40;51.40;;;;;;5034260;28;19927;-70
2024/03/28 07:15:04;;;;;;;;;;;13.50;51.80;;;;;;5050645;28;19967;-76
2024/03/28 07:17:30;;;;;;;;;;;13.80;52.00;;;;;;5052386;28;19924;-69
2024/03/28 07:19:56;;;;;;;;;;;13.90;51.70;;;;;;5052111;28;19935;-76
2024/03/28 07:22:22;;;;;;;;;;;13.70;50.20;;;;;;5050060;28;19921;-76
2024/03/28 07:24:48;;;;;;;;;;;13.70;48.60;;;;;;5034058;28;19913;-76
2024/03/28 07:27:14;;;;;;;;;;;13.60;50.00;;;;;;5034138;28;19974;-76
2024/03/28 07:29:40;;;;;;;;;;;13.70;50.70;;;;;;5050607;28;19913;-76
2024/03/28 07:32:07;;;;;;;;;;;13.80;51.00;;;;;;5051662;28;20031;-76
2024/03/28 07:34:33;;;;;;;;;;;13.90;48.60;;;;;;5050568;28;19967;-76
2024/03/28 07:36:59;;;;;;;;;;;14.00;49.00;;;;;;5051830;28;20022;-70
2024/03/28 07:39:25;;;;;;;;;;;14.20;48.80;;;;;;5051790;28;19912;-69
2024/03/28 07:41:51;;;;;;;;;;;14.20;48.90;;;;;;5049943;28;19927;-70
2024/03/28 07:44:17;;;;;;;;;;;14.20;49.20;;;;;;5050488;28;20001;-70
2024/03/28 07:46:42;;;;;;;;;;;14.40;49.00;;;;;;5049927;28;19921;-70
2024/03/28 07:49:08;;;;;;;;;;;14.50;47.90;;;;;;5050342;28;20003;-70
2024/03/28 07:51:34;;;;;;;;;;;14.90;47.50;;;;;;5049969;28;19967;-70
2024/03/28 07:54:00;;;;;;;;;;;15.40;47.20;;;;;;5051421;28;20364;-70
2024/03/28 07:56:26;;;;;;;;;;;15.90;43.30;;;;;;5051355;28;19912;-76
2024/03/28 07:58:52;;;;;;;;;;;16.40;43.00;;;;;;5051582;28;19983;-76
2024/03/28 08:01:18;;;;;;;;;;;16.90;43.80;;;;;;5049865;28;20007;-72
2024/03/28 08:03:44;;;;;;;;;;;17.40;40.80;;;;;;5051270;28;19920;-70
2024/03/28 08:06:11;;;;;;;;;;;17.90;39.90;;;;;;5050132;28;19955;-76
2024/03/28 08:08:37;;;;;;;;;;;18.60;35.70;;;;;;5050245;28;19916;-76
2024/03/28 08:11:04;;;;;;;;;;;18.40;34.50;;;;;;5049644;28;19920;-69
2024/03/28 08:13:31;;;;;;;;;;;18.00;35.20;;;;;;5050134;28;20047;-70
2024/03/28 08:15:57;;;;;;;;;;;17.80;34.80;;;;;;5050000;28;20365;-75
2024/03/28 08:18:23;;;;;;;;;;;17.70;36.20;;;;;;5050324;28;20015;-75
2024/03/28 08:20:49;;;;;;;;;;;18.00;33.60;;;;;;5049508;28;19917;-69
2024/03/28 08:23:15;;;;;;;;;;;18.10;34.60;;;;;;5050245;28;20370;-75
2024/03/28 08:25:41;;;;;;;;;;;17.70;34.20;;;;;;5050938;28;19919;-70
2024/03/28 08:28:09;;;;;;;;;;;17.50;34.20;;;;;;5050272;28;19920;-76
2024/03/28 08:30:37;;;;;;;;;;;17.20;35.10;;;;;;5050622;28;20451;-70
2024/03/28 08:33:03;;;;;;;;;;;17.10;36.90;;;;;;5050182;28;19927;-70
2024/03/28 08:35:33;;;;;;;;;;;17.50;35.30;;;;;;5051454;28;19924;-76
2024/03/28 08:37:59;;;;;;;;;;;17.60;36.30;;;;;;5050130;28;19921;-76
2024/03/28 08:40:25;;;;;;;;;;;18.30;36.30;;;;;;5049466;28;19921;-71
2024/03/28 08:42:51;;;;;;;;;;;19.00;35.00;;;;;;5049854;28;20275;-70
2024/03/28 08:45:19;;;;;;;;;;;19.50;30.20;;;;;;5050903;28;20003;-71
2024/03/28 08:47:45;;;;;;;;;;;19.90;31.50;;;;;;5051244;28;19920;-76
2024/03/28 08:50:30;;;;;;;;;;;20.10;30.00;;;;;;5049599;28;19913;-70
2024/03/28 08:52:56;;;;;;;;;;;20.80;30.20;;;;;;5049965;28;20004;-70
2024/03/28 08:55:23;;;;;;;;;;;21.10;28.40;;;;;;5050732;28;20035;-70
2024/03/28 08:57:51;;;;;;;;;;;21.30;27.90;;;;;;5050939;28;19921;-69
2024/03/28 09:00:19;;;;;;;;;;;21.40;27.60;;;;;;5035561;28;20380;-76
2024/03/28 09:02:45;;;;;;;;;;;21.80;28.20;;;;;;5055077;28;20019;-76
2024/03/28 09:05:12;;;;;;;;;;;22.40;27.00;;;;;;5053168;28;19927;-70
2024/03/28 09:07:38;;;;;;;;;;;22.60;27.70;;;;;;5053376;28;19927;-76
2024/03/28 09:10:07;;;;;;;;;;;23.00;28.20;;;;;;5052977;28;19912;-70
2024/03/28 09:12:37;;;;;;;;;;;23.20;26.50;;;;;;5053506;28;20373;-75
2024/03/28 09:15:06;;;;;;;;;;;22.70;27.30;;;;;;5052979;28;19923;-70
2024/03/28 09:17:32;;;;;;;;;;;21.60;27.70;;;;;;5053233;28;19971;-75
2024/03/28 09:19:58;;;;;;;;;;;20.80;30.00;;;;;;5053181;28;20356;-75
2024/03/28 09:22:24;;;;;;;;;;;20.00;31.20;;;;;;5052373;28;19917;-70
2024/03/28 09:24:50;;;;;;;;;;;19.30;32.10;;;;;;5054005;28;19920;-75
2024/03/28 09:27:17;;;;;;;;;;;18.80;33.50;;;;;;5054232;28;19962;-75
2024/03/28 09:29:44;;;;;;;;;;;18.20;34.00;;;;;;5036210;28;19916;-75
2024/03/28 09:32:10;;;;;;;;;;;17.80;36.40;;;;;;5052378;28;19921;-70
2024/03/28 09:37:21;;;;;;;;;;;17.50;36.40;;;;;;5053046;28;20442;-70
2024/03/28 09:40:13;;;;;;;;;;;17.40;35.90;;;;;;5053900;28;19921;-71
2024/03/28 09:42:43;;;;;;;;;;;17.50;37.30;;;;;;5053421;28;19921;-71
2024/03/28 09:45:12;;;;;;;;;;;17.40;37.60;;;;;;5052534;28;19924;-76
2024/03/28 09:47:38;;;;;;;;;;;17.30;38.00;;;;;;5052851;28;19928;-70
2024/03/28 09:50:23;;;;;;;;;;;17.50;37.80;;;;;;5053320;28;19917;-70
2024/03/28 09:52:52;;;;;;;;;;;18.10;35.40;;;;;;5052739;28;19969;-75
2024/03/28 09:55:18;;;;;;;;;;;17.80;35.40;;;;;;5052453;28;19924;-75
2024/03/28 09:57:44;;;;;;;;;;;17.80;36.10;;;;;;5052184;28;19921;-76
2024/03/28 10:00:12;;;;;;;;;;;18.10;36.90;;;;;;5052047;28;20019;-76
2024/03/28 10:03:15;;;;;;;;;;;18.90;36.00;;;;;;5052252;28;19956;-76
2024/03/28 10:05:41;;;;;;;;;;;19.00;33.50;;;;;;5053399;28;20332;-70
2024/03/28 10:08:07;;;;;;;;;;;19.00;34.10;;;;;;5052076;28;19974;-70
2024/03/28 10:10:37;;;;;;;;;;;18.80;34.20;;;;;;5051182;28;20321;-70
2024/03/28 10:13:07;;;;;;;;;;;18.50;33.70;;;;;;5052131;28;19928;-70
2024/03/28 10:15:35;;;;;;;;;;;18.10;35.10;;;;;;5052119;28;19941;-70
2024/03/28 10:18:19;;;;;;;;;;;17.70;35.30;;;;;;5035472;28;20278;-76
2024/03/28 10:21:04;;;;;;;;;;;17.30;37.20;;;;;;5051608;28;19917;-69
2024/03/28 10:23:31;;;;;;;;;;;17.20;38.10;;;;;;5035337;28;19928;-76
2024/03/28 10:25:58;;;;;;;;;;;17.20;38.50;;;;;;5051588;28;19912;-70
2024/03/28 10:28:30;;;;;;;;;;;17.10;38.10;;;;;;5051929;28;20259;-73
2024/03/28 10:31:34;;;;;;;;;;;16.90;38.30;;;;;;5052509;28;19917;-70
2024/03/28 10:34:03;;;;;;;;;;;17.10;38.40;;;;;;5052887;28;19921;-70
2024/03/28 10:36:29;;;;;;;;;;;17.10;36.70;;;;;;5052800;28;19913;-73
2024/03/28 10:39:21;;;;;;;;;;;16.90;38.20;;;;;;5051660;28;19913;-76
2024/03/28 10:41:48;;;;;;;;;;;16.70;39.20;;;;;;5052206;28;19929;-75
2024/03/28 10:44:16;;;;;;;;;;;16.60;39.70;;;;;;5052496;28;19917;-76
2024/03/28 10:46:42;;;;;;;;;;;16.50;40.10;;;;;;5051457;28;19920;-76
2024/03/28 10:49:08;;;;;;;;;;;16.30;39.90;;;;;;5051409;28;19919;-70
2024/03/28 10:51:54;;;;;;;;;;;16.20;40.40;;;;;;5050963;28;19917;-72
2024/03/28 10:54:40;;;;;;;;;;;16.00;40.50;;;;;;5051313;28;19920;-76
2024/03/28 10:57:08;;;;;;;;;;;16.00;41.00;;;;;;5034682;28;20329;-76
2024/03/28 10:59:34;;;;;;;;;;;15.90;43.00;;;;;;5051370;28;19920;-76
2024/03/28 11:02:02;;;;;;;;;;;16.00;41.90;;;;;;5050660;28;19921;-76
2024/03/28 11:04:29;;;;;;;;;;;16.00;41.20;;;;;;5052291;28;19917;-76
2024/03/28 11:06:56;;;;;;;;;;;15.90;40.50;;;;;;5051097;28;19916;-70
2024/03/28 11:09:23;;;;;;;;;;;15.80;42.20;;;;;;5034623;28;19924;-71
2024/03/28 11:12:08;;;;;;;;;;;15.70;42.60;;;;;;5050572;28;20001;-71
2024/03/28 11:14:34;;;;;;;;;;;15.60;42.20;;;;;;5051810;28;19917;-70
2024/03/28 11:17:23;;;;;;;;;;;15.50;42.80;;;;;;5052178;28;19948;-75
2024/03/28 11:20:11;;;;;;;;;;;15.40;43.00;;;;;;5051029;28;19920;-69
2024/03/28 11:22:37;;;;;;;;;;;15.30;45.10;;;;;;5051291;28;19917;-70
2024/03/28 11:25:03;;;;;;;;;;;15.10;46.40;;;;;;5050542;28;19917;-74
2024/03/28 11:27:29;;;;;;;;;;;15.00;47.70;;;;;;5050839;28;19923;-73
2024/03/28 11:30:14;;;;;;;;;;;15.00;46.30;;;;;;5052012;28;19916;-76
2024/03/28 11:32:40;;;;;;;;;;;15.10;45.80;;;;;;5033696;28;19959;-75
2024/03/28 11:35:08;;;;;;;;;;;15.10;46.00;;;;;;5052042;28;19917;-73
2024/03/28 11:37:33;;;;;;;;;;;15.00;43.80;;;;;;5050489;28;19917;-76
2024/03/28 11:39:59;;;;;;;;;;;15.00;46.40;;;;;;5050697;28;19931;-69
2024/03/28 11:42:25;;;;;;;;;;;14.90;47.00;;;;;;5051195;28;20015;-70
2024/03/28 11:44:51;;;;;;;;;;;15.00;46.70;;;;;;5051580;28;19999;-74
2024/03/28 11:47:36;;;;;;;;;;;15.10;46.80;;;;;;5051794;28;19967;-76
2024/03/28 11:50:20;;;;;;;;;;;15.20;46.80;;;;;;5050424;28;19917;-76
2024/03/28 11:52:46;;;;;;;;;;;15.10;47.20;;;;;;5051606;28;19917;-69
2024/03/28 11:55:13;;;;;;;;;;;15.20;47.30;;;;;;5033498;28;19966;-70
2024/03/28 11:57:41;;;;;;;;;;;15.20;47.20;;;;;;5033515;28;20362;-76
2024/03/28 12:00:08;;;;;;;;;;;15.20;47.60;;;;;;5051114;28;19964;-76
2024/03/28 12:02:34;;;;;;;;;;;15.20;45.60;;;;;;5050338;28;19922;-70
2024/03/28 12:05:18;;;;;;;;;;;15.10;46.70;;;;;;5050198;28;19942;-75
2024/03/28 12:07:44;;;;;;;;;;;15.00;46.80;;;;;;5050396;28;19921;-72
2024/03/28 12:10:11;;;;;;;;;;;15.00;47.10;;;;;;5049712;28;20019;-75
2024/03/28 12:12:40;;;;;;;;;;;15.10;48.40;;;;;;5051733;28;19966;-70
2024/03/28 12:15:07;;;;;;;;;;;15.10;48.10;;;;;;5033660;28;20320;-76
2024/03/28 12:17:33;;;;;;;;;;;14.80;48.50;;;;;;5051606;28;19927;-69
2024/03/28 12:23:07;;;;;;;;;;;14.90;48.90;;;;;;5049926;28;19974;-69
2024/03/28 12:25:32;;;;;;;;;;;15.00;49.00;;;;;;5049827;28;19920;-75
2024/03/28 12:28:00;;;;;;;;;;;15.00;49.00;;;;;;5050028;28;20494;-70
2024/03/28 12:30:27;;;;;;;;;;;15.00;48.20;;;;;;5049263;28;20027;-76
2024/03/28 12:33:12;;;;;;;;;;;14.80;49.30;;;;;;5034401;28;19921;-76
2024/03/28 12:35:38;;;;;;;;;;;14.70;51.50;;;;;;5037123;28;19967;-76
2024/03/28 12:38:05;;;;;;;;;;;14.50;53.40;;;;;;5053874;28;20361;-76
2024/03/28 12:40:31;;;;;;;;;;;14.50;54.30;;;;;;5036829;28;19916;-76
2024/03/28 12:42:58;;;;;;;;;;;14.50;53.60;;;;;;5055301;28;19943;-69
2024/03/28 12:45:43;;;;;;;;;;;14.50;53.80;;;;;;5053674;28;19967;-77
2024/03/28 12:48:10;;;;;;;;;;;14.40;53.10;;;;;;5055340;28;20292;-76
2024/03/28 12:50:45;;;;;;;;;;;14.60;53.00;;;;;;5053001;28;19916;-77
2024/03/28 12:53:11;;;;;;;;;;;14.50;52.10;;;;;;5053685;28;19975;-76
2024/03/28 12:55:38;;;;;;;;;;;14.60;52.30;;;;;;5036736;28;19919;-76
2024/03/28 12:58:05;;;;;;;;;;;14.80;52.90;;;;;;5053763;28;19925;-69
2024/03/28 13:00:32;;;;;;;;;;;14.80;51.80;;;;;;5052961;28;19956;-76
2024/03/28 13:02:58;;;;;;;;;;;14.80;52.60;;;;;;5036954;28;20396;-76
2024/03/28 13:05:23;;;;;;;;;;;14.80;52.70;;;;;;5054621;28;19917;-69
2024/03/28 13:07:50;;;;;;;;;;;15.00;51.90;;;;;;5036820;28;19920;-70
2024/03/28 13:10:17;;;;;;;;;;;15.40;50.30;;;;;;5052775;28;19921;-76
2024/03/28 13:12:43;;;;;;;;;;;15.70;49.50;;;;;;5053434;28;20353;-76
2024/03/28 13:15:09;;;;;;;;;;;15.80;49.60;;;;;;5053052;28;20011;-70
2024/03/28 13:17:35;;;;;;;;;;;15.70;50.40;;;;;;5054319;28;19916;-75
2024/03/28 13:20:05;;;;;;;;;;;15.60;50.70;;;;;;5053543;28;20474;-70
2024/03/28 13:22:32;;;;;;;;;;;15.60;49.70;;;;;;5052619;28;19917;-76
2024/03/28 13:24:57;;;;;;;;;;;15.40;49.90;;;;;;5052845;28;19962;-76
2024/03/28 13:27:23;;;;;;;;;;;15.40;49.90;;;;;;5053044;28;19916;-75
2024/03/28 13:29:49;;;;;;;;;;;15.40;50.60;;;;;;5054112;28;19921;-76
2024/03/28 13:32:15;;;;;;;;;;;15.50;50.50;;;;;;5053608;28;20008;-70
2024/03/28 13:34:41;;;;;;;;;;;15.40;50.60;;;;;;5054153;28;20442;-72
2024/03/28 13:37:08;;;;;;;;;;;15.40;50.50;;;;;;5053875;28;20250;-76
2024/03/28 13:39:34;;;;;;;;;;;15.50;51.60;;;;;;5054217;28;19917;-76
2024/03/28 13:42:00;;;;;;;;;;;15.60;50.80;;;;;;5053420;28;19927;-70
2024/03/28 13:44:26;;;;;;;;;;;15.50;50.00;;;;;;5035037;28;19921;-76
2024/03/28 13:49:37;;;;;;;;;;;15.40;49.30;;;;;;5053877;28;19950;-70
2024/03/28 13:52:03;;;;;;;;;;;15.50;48.70;;;;;;5052168;28;20362;-70
2024/03/28 13:54:30;;;;;;;;;;;15.40;49.00;;;;;;5035619;28;19917;-70
2024/03/28 13:56:57;;;;;;;;;;;15.50;50.00;;;;;;5052290;28;19923;-76
2024/03/28 13:59:23;;;;;;;;;;;15.50;49.80;;;;;;5052661;28;19916;-69
2024/03/28 14:01:49;;;;;;;;;;;15.60;49.10;;;;;;5051637;28;19921;-76
2024/03/28 14:04:16;;;;;;;;;;;15.70;47.50;;;;;;5052229;28;19943;-70
2024/03/28 14:06:42;;;;;;;;;;;15.80;47.40;;;;;;5052049;28;19920;-76
2024/03/28 14:09:09;;;;;;;;;;;15.90;44.60;;;;;;5052218;28;19962;-70
2024/03/28 14:11:36;;;;;;;;;;;16.10;46.50;;;;;;5051561;28;19991;-74
2024/03/28 14:14:03;;;;;;;;;;;16.10;44.20;;;;;;5052211;28;19920;-70
2024/03/28 14:16:29;;;;;;;;;;;16.20;44.40;;;;;;5051857;28;19973;-76
2024/03/28 14:18:55;;;;;;;;;;;16.20;45.10;;;;;;5053863;28;20020;-70
2024/03/28 14:21:21;;;;;;;;;;;16.30;43.80;;;;;;5051138;28;19916;-70
2024/03/28 14:23:47;;;;;;;;;;;16.30;43.70;;;;;;5053131;28;19921;-71
2024/03/28 14:26:14;;;;;;;;;;;16.20;45.20;;;;;;5052836;28;19947;-76
2024/03/28 14:28:40;;;;;;;;;;;16.10;45.20;;;;;;5051962;28;20183;-70
2024/03/28 14:31:07;;;;;;;;;;;16.10;45.40;;;;;;5051274;28;19920;-70
2024/03/28 14:33:33;;;;;;;;;;;16.10;45.60;;;;;;5035356;28;19966;-70
2024/03/28 14:36:00;;;;;;;;;;;16.10;45.60;;;;;;5052705;28;19912;-73
2024/03/28 14:38:26;;;;;;;;;;;16.10;45.40;;;;;;5051954;28;20316;-70
2024/03/28 14:40:52;;;;;;;;;;;16.00;44.60;;;;;;5050960;28;19920;-70
2024/03/28 14:43:18;;;;;;;;;;;16.10;45.10;;;;;;5053222;28;20355;-76